首页
METAR-TAF:

METAR-TAF

机场 :

St. Cloud Regional Airport

St. Cloud, 明尼蘇達州, 美国

纬度: 45-32-47N, 经度: 094-03-35W, 海拔: 314米

当前天气观测

该预报发布于1小时和11分钟前的21:53 UTC
静风
温度 27°C
湿度 39%
气压 1017 hPa
能見度: 16.1公里
天空无云

METAR: KSTC 142153Z 00000KT 10SM CLR 27/12 A3004 RMK AO2 SLP177 T02670117

时间: 18:04 (23:04 UTC)

预报

该预报发布于5小时和30分钟前的17:34 UTC
预报有效从14日的 18点(UTC)到 15日的 18点(UTC)
风速4节,风向北转西北
能見度: 10公里
少量云层高于5000英尺
从 14日的 2300点(UTC)
风速4节,风向西南
能見度: 10公里
少量云层高于25000英尺
从 15日的 0100点(UTC)
风速5节,风向东南
能見度: 10公里
散云层高于15000英尺
从 15日的 1300点(UTC)
风速12节,风向南转南东
能見度: 10公里
阴天层高于10000英尺
从 15日的 1600点(UTC)
风速16节,风向,有时为25节阵风
能見度: 10公里
阴天层高于10000英尺

TAF: KSTC 141734Z 1418/1518 33004KT P6SM FEW050 FM142300 22004KT P6SM FEW250 FM150100 13005KT P6SM SCT150 FM151300 16012KT P6SM OVC100 FM151600 17016G25KT P6SM OVC100

超过4000个机场的气象观测和天气预报(METAR&TAF报告)。

可查询的气象台以黄色和红色小点在地图上表示。

将鼠标移到小点上方,可查看气象台名称。

然后点击查看天气观测和预报。

如需切换地图:点击带黑十字的绿色按钮放大地图;点击带横线的绿色按钮缩小地图;或者点击绿色箭头查看邻近地区的地图。


METAR-TAF: